createdAt,value
2019-03-23T00:00:37.244Z,7.9
2019-03-23T00:01:38.767Z,7.9
2019-03-23T00:02:40.178Z,7.2
2019-03-23T00:03:41.707Z,7.4
2019-03-23T00:04:42.946Z,7.5
2019-03-23T00:05:44.351Z,7.6
2019-03-23T00:06:45.947Z,7.7
2019-03-23T00:07:47.529Z,7.8
2019-03-23T00:08:49.083Z,7.9
2019-03-23T00:09:50.626Z,7.9
2019-03-23T00:10:52.158Z,7.7
2019-03-23T00:11:53.700Z,7.8
2019-03-23T00:12:55.259Z,7.9
2019-03-23T00:13:56.643Z,7.2
2019-03-23T00:14:58.017Z,7.4
2019-03-23T00:15:59.547Z,7.5
2019-03-23T00:17:01.093Z,7.5
2019-03-23T00:18:02.531Z,7.6
2019-03-23T00:19:04.081Z,7.7
2019-03-23T00:20:05.477Z,7.7
2019-03-23T00:21:07.060Z,7.8
2019-03-23T00:22:08.637Z,7.8
2019-03-23T00:23:10.260Z,7.9
2019-03-23T00:24:11.662Z,7.9
2019-03-23T00:25:13.049Z,7.9
2019-03-23T00:26:14.730Z,7.9
2019-03-23T00:27:16.168Z,7.9
2019-03-23T00:28:17.783Z,7.9
2019-03-23T00:29:33.867Z,7.9
2019-03-23T00:30:35.240Z,7.9
2019-03-23T00:31:36.628Z,7.9
2019-03-23T00:32:38.178Z,7.9
2019-03-23T00:33:39.246Z,7.9
2019-03-23T00:34:40.777Z,7.9
2019-03-23T00:35:42.157Z,7.9
2019-03-23T00:36:43.417Z,7.9
2019-03-23T00:37:44.815Z,7.9
2019-03-23T00:38:46.351Z,7.9
2019-03-23T00:39:47.737Z,7.9
2019-03-23T00:40:50.131Z,7.9
2019-03-23T00:41:51.557Z,7.9
2019-03-23T00:42:52.957Z,7.9
2019-03-23T00:43:54.333Z,7.9
2019-03-23T00:44:55.936Z,7.9
2019-03-23T00:45:57.330Z,7.9
2019-03-23T00:46:58.777Z,7.9
2019-03-23T00:48:00.009Z,7.9
2019-03-23T00:49:01.376Z,7.9
2019-03-23T00:50:02.936Z,7.9
2019-03-23T00:51:04.479Z,7.9
2019-03-23T00:52:06.010Z,7.9
2019-03-23T00:53:07.399Z,7.9
2019-03-23T00:54:08.953Z,7.9
2019-03-23T00:55:10.509Z,7.9
2019-03-23T00:56:11.743Z,7.9
2019-03-23T00:57:13.321Z,7.9
2019-03-23T00:58:14.408Z,7.9
2019-03-23T00:59:15.966Z,7.9
2019-03-23T01:00:17.329Z,7.9
2019-03-23T01:01:18.731Z,7.9
2019-03-23T01:02:20.283Z,7.9
2019-03-23T01:03:21.835Z,7.9
2019-03-23T01:04:23.374Z,7.9
2019-03-23T01:05:24.794Z,7.8
2019-03-23T01:06:26.196Z,7.8
2019-03-23T01:07:27.584Z,7.8
2019-03-23T01:08:29.103Z,7.9
2019-03-23T01:09:30.645Z,7.9
2019-03-23T01:10:32.187Z,7.9
2019-03-23T01:11:33.723Z,7.9
2019-03-23T01:12:35.097Z,7.9
2019-03-23T01:13:36.626Z,7.9
2019-03-23T01:14:38.026Z,7.8
2019-03-23T01:15:39.398Z,7.8
2019-03-23T01:16:40.934Z,7.8
2019-03-23T01:17:42.385Z,7.8
2019-03-23T01:18:43.778Z,7.8
2019-03-23T01:19:45.147Z,7.8
2019-03-23T01:20:51.147Z,7.8
2019-03-23T01:21:52.654Z,7.9
2019-03-23T01:22:54.037Z,7.9
2019-03-23T01:23:55.573Z,7.9
2019-03-23T01:24:57.084Z,7.9
2019-03-23T01:25:58.812Z,7.9
2019-03-23T01:27:00.424Z,7.9
2019-03-23T01:28:02.011Z,7.9
2019-03-23T01:29:02.918Z,7.9
2019-03-23T01:30:04.142Z,7.9
2019-03-23T01:31:05.527Z,7.9
2019-03-23T01:32:07.066Z,7.9
2019-03-23T01:33:08.596Z,7.9
2019-03-23T01:34:09.966Z,7.9
2019-03-23T01:35:11.176Z,7.9
2019-03-23T01:36:12.567Z,7.9
2019-03-23T01:37:13.936Z,7.9
2019-03-23T01:38:15.520Z,7.9
2019-03-23T01:39:17.165Z,7.9
2019-03-23T01:40:18.807Z,7.9
2019-03-23T01:41:20.006Z,7.8
2019-03-23T01:42:21.687Z,7.8
2019-03-23T01:43:23.319Z,7.8
2019-03-23T01:44:24.982Z,7.8
2019-03-23T01:45:26.215Z,7.8
2019-03-23T01:46:27.756Z,7.8
2019-03-23T01:47:29.287Z,7.8
2019-03-23T01:48:30.811Z,7.9
2019-03-23T01:49:32.367Z,7.9
2019-03-23T01:50:33.757Z,7.9
2019-03-23T01:51:35.127Z,7.9
2019-03-23T01:52:36.510Z,7.8
2019-03-23T01:53:37.887Z,7.8
2019-03-23T01:54:39.256Z,7.8
2019-03-23T01:55:40.636Z,7.8
2019-03-23T01:56:41.869Z,7.8
2019-03-23T01:57:43.471Z,7.8
2019-03-23T01:58:45.033Z,7.8
2019-03-23T01:59:46.567Z,7.7
2019-03-23T02:00:47.952Z,7.7
2019-03-23T02:01:49.497Z,7.7
2019-03-23T02:02:51.009Z,7.7
2019-03-23T02:03:52.437Z,7.7
2019-03-23T02:04:54.002Z,7.5
2019-03-23T02:05:55.561Z,7.5
2019-03-23T02:06:56.947Z,7.4
2019-03-23T02:07:58.491Z,7.2
2019-03-23T02:09:00.036Z,7.1
2019-03-23T02:10:01.753Z,7.1
2019-03-23T02:11:03.315Z,7.1
2019-03-23T02:12:04.729Z,7.1
2019-03-23T02:13:05.966Z,7.1
2019-03-23T02:14:07.321Z,7.1
2019-03-23T02:15:08.881Z,7.1
2019-03-23T02:16:09.991Z,7.1
2019-03-23T02:17:11.383Z,7.1
2019-03-23T02:18:12.939Z,7.1
2019-03-23T02:19:14.304Z,7.1
2019-03-23T02:20:15.849Z,7.1
2019-03-23T02:21:17.404Z,7.1
2019-03-23T02:22:18.963Z,7.1
2019-03-23T02:23:20.493Z,7.1
2019-03-23T02:24:22.024Z,7.1
2019-03-23T02:25:23.538Z,7.1
2019-03-23T02:26:25.182Z,7.1
2019-03-23T02:27:26.584Z,7.1
2019-03-23T02:28:28.352Z,7.2
2019-03-23T02:29:29.962Z,7.2
2019-03-23T02:30:31.412Z,7.2
2019-03-23T02:31:32.990Z,7.2
2019-03-23T02:32:34.370Z,7.2
2019-03-23T02:33:35.961Z,7.1
2019-03-23T02:34:37.516Z,7.2
2019-03-23T02:35:38.778Z,7.2
2019-03-23T02:36:40.309Z,7.2
2019-03-23T02:37:41.738Z,7.2
2019-03-23T02:38:43.139Z,7.2
2019-03-23T02:39:44.701Z,7.2
2019-03-23T02:40:46.239Z,7.2
2019-03-23T02:41:47.685Z,7.2
2019-03-23T02:42:49.214Z,7.2
2019-03-23T02:43:50.778Z,7.2
2019-03-23T02:44:52.182Z,7.2
2019-03-23T02:45:53.564Z,7.2
2019-03-23T02:46:55.150Z,7.2
2019-03-23T02:47:56.689Z,7.2
2019-03-23T02:48:58.058Z,7.2
2019-03-23T02:49:59.591Z,7.1
2019-03-23T02:51:00.988Z,7.2
2019-03-23T02:52:02.540Z,7.1
2019-03-23T02:53:04.117Z,7.2
2019-03-23T02:54:05.645Z,7.1
2019-03-23T02:55:07.200Z,7.1
2019-03-23T02:56:08.751Z,7.1
2019-03-23T02:57:10.352Z,7.1
2019-03-23T02:58:11.890Z,7.1
2019-03-23T02:59:13.271Z,7.1
2019-03-23T03:00:14.904Z,7.1
2019-03-23T03:01:16.467Z,7.1
2019-03-23T03:02:17.972Z,7.1
2019-03-23T03:03:19.387Z,7.1
2019-03-23T03:04:20.777Z,7.1
2019-03-23T03:05:22.185Z,7.1
2019-03-23T03:06:23.763Z,7.1
2019-03-23T03:07:25.345Z,7.1
2019-03-23T03:08:26.930Z,7.1
2019-03-23T03:09:28.310Z,7.1
2019-03-23T03:10:29.848Z,7.1
2019-03-23T03:11:31.108Z,7.1
2019-03-23T03:12:32.738Z,7.1
2019-03-23T03:13:34.280Z,7.1
2019-03-23T03:14:35.867Z,7.1
2019-03-23T03:15:37.542Z,7.1
2019-03-23T03:16:38.844Z,7.2
2019-03-23T03:17:40.458Z,7.2
2019-03-23T03:18:41.979Z,7.2
2019-03-23T03:19:43.270Z,7.2
2019-03-23T03:20:44.689Z,7.2
2019-03-23T03:21:46.137Z,7.2
2019-03-23T03:22:47.704Z,7.2
2019-03-23T03:23:49.274Z,7.2
2019-03-23T03:24:50.508Z,7.2
2019-03-23T03:25:52.054Z,7.2
2019-03-23T03:26:53.460Z,7.2
2019-03-23T03:27:55.008Z,7.3
2019-03-23T03:28:56.395Z,7.4
2019-03-23T03:29:57.798Z,7.4
2019-03-23T03:30:58.925Z,7.5
2019-03-23T03:32:00.205Z,7.6
2019-03-23T03:33:01.832Z,7.7
2019-03-23T03:34:03.489Z,7.8
2019-03-23T03:35:05.168Z,7.9
2019-03-23T03:36:06.721Z,7.9
2019-03-23T03:37:08.260Z,7.9
2019-03-23T03:38:09.508Z,7.3
2019-03-23T03:39:11.030Z,7.4
2019-03-23T03:40:12.572Z,7.5
2019-03-23T03:41:14.111Z,7.6
2019-03-23T03:42:15.696Z,7.8
2019-03-23T03:43:17.215Z,7.8
2019-03-23T03:44:18.600Z,7.9
2019-03-23T03:45:20.145Z,7.9
2019-03-23T03:46:21.710Z,7.8
2019-03-23T03:47:23.289Z,7.9
2019-03-23T03:48:24.826Z,7.9
2019-03-23T03:49:26.080Z,7.2
2019-03-23T03:50:27.520Z,7.3
2019-03-23T03:51:29.070Z,7.4
2019-03-23T03:52:30.596Z,7.5
2019-03-23T03:53:31.986Z,7.5
2019-03-23T03:54:33.398Z,7.6
2019-03-23T03:55:34.814Z,7.7
2019-03-23T03:56:36.347Z,7.7
2019-03-23T03:57:37.909Z,7.8
2019-03-23T03:58:39.292Z,7.8
2019-03-23T03:59:40.873Z,7.9
2019-03-23T04:00:42.472Z,7.9
2019-03-23T04:01:44.159Z,7.9
2019-03-23T04:02:45.750Z,7.9
2019-03-23T04:03:47.184Z,7.9
2019-03-23T04:04:48.726Z,7.9
2019-03-23T04:05:50.289Z,7.9
2019-03-23T04:06:51.847Z,7.9
2019-03-23T04:07:53.495Z,7.9
2019-03-23T04:08:55.105Z,7.8
2019-03-23T04:09:56.679Z,7.8
2019-03-23T04:10:57.761Z,7.8
2019-03-23T04:11:59.335Z,7.9
2019-03-23T04:13:00.912Z,7.9
2019-03-23T04:14:02.443Z,7.9
2019-03-23T04:15:03.847Z,7.9
2019-03-23T04:16:05.242Z,7.9
2019-03-23T04:17:06.800Z,7.9
2019-03-23T04:18:08.353Z,7.9
2019-03-23T04:19:09.904Z,7.9
2019-03-23T04:20:11.475Z,7.9
2019-03-23T04:21:12.723Z,7.8
2019-03-23T04:22:14.276Z,7.8
2019-03-23T04:23:15.856Z,7.8
2019-03-23T04:24:17.092Z,7.8
2019-03-23T04:25:18.710Z,7.8
2019-03-23T04:26:20.286Z,7.8
2019-03-23T04:27:21.671Z,7.9
2019-03-23T04:28:23.232Z,7.9
2019-03-23T04:29:24.773Z,7.9
2019-03-23T04:30:26.177Z,7.8
2019-03-23T04:31:27.723Z,7.9
2019-03-23T04:32:29.297Z,7.9
2019-03-23T04:33:30.866Z,7.8
2019-03-23T04:34:32.117Z,7.8
2019-03-23T04:35:33.649Z,7.9
2019-03-23T04:36:35.212Z,7.8
2019-03-23T04:37:36.799Z,7.8
2019-03-23T04:38:38.359Z,7.8
2019-03-23T04:39:39.769Z,7.7
2019-03-23T04:40:41.202Z,7.6
2019-03-23T04:41:42.758Z,7.5
2019-03-23T04:42:44.029Z,7.3
2019-03-23T04:43:45.567Z,7.2
2019-03-23T04:44:46.944Z,7.1
2019-03-23T04:45:48.338Z,7.1
2019-03-23T04:46:49.721Z,7.1
2019-03-23T04:47:51.100Z,7.1
2019-03-23T04:48:52.836Z,7.1
2019-03-23T04:49:54.363Z,7.1
2019-03-23T04:50:55.744Z,7.1
2019-03-23T04:51:57.129Z,7.1
2019-03-23T04:52:58.698Z,7.1
2019-03-23T04:54:00.079Z,7.1
2019-03-23T04:55:01.800Z,7.1
2019-03-23T04:56:03.201Z,7.1
2019-03-23T04:57:04.748Z,7.1
2019-03-23T04:58:05.970Z,7.1
2019-03-23T04:59:07.488Z,7.1
2019-03-23T05:00:08.718Z,7.2
2019-03-23T05:01:10.238Z,7.2
2019-03-23T05:02:11.770Z,7.2
2019-03-23T05:03:13.312Z,7.2
2019-03-23T05:04:14.749Z,7.2
2019-03-23T05:05:16.149Z,7.2
2019-03-23T05:06:17.530Z,7.2
2019-03-23T05:07:19.108Z,7.2
2019-03-23T05:08:20.670Z,7.3
2019-03-23T05:09:22.208Z,7.4
2019-03-23T05:10:23.596Z,7.5
2019-03-23T05:11:25.138Z,7.6
2019-03-23T05:12:26.500Z,7.7
2019-03-23T05:13:28.045Z,7.8
2019-03-23T05:14:29.408Z,7.9
2019-03-23T05:15:30.647Z,7.9
2019-03-23T05:16:32.228Z,7.9
2019-03-23T05:17:33.429Z,7.9
2019-03-23T05:18:34.820Z,7.9
2019-03-23T05:19:36.211Z,7.9
2019-03-23T05:20:37.607Z,7.9
2019-03-23T05:21:38.978Z,7.9
2019-03-23T05:22:40.621Z,7.9
2019-03-23T05:23:41.718Z,7.9
2019-03-23T05:24:42.961Z,7.9
2019-03-23T05:25:44.503Z,7.9
2019-03-23T05:26:45.895Z,7.9
2019-03-23T05:27:47.298Z,7.9
2019-03-23T05:28:48.838Z,7.9
2019-03-23T05:29:50.379Z,7.9
2019-03-23T05:30:51.762Z,7.9
2019-03-23T05:31:52.991Z,7.9
2019-03-23T05:32:54.562Z,7.9
2019-03-23T05:33:56.100Z,7.9
2019-03-23T05:34:57.636Z,7.9
2019-03-23T05:35:59.179Z,7.9
2019-03-23T05:37:00.718Z,7.9
2019-03-23T05:38:02.102Z,7.8
2019-03-23T05:39:03.490Z,7.8
2019-03-23T05:40:04.869Z,7.8
2019-03-23T05:41:06.097Z,7.8
2019-03-23T05:42:07.630Z,7.8
2019-03-23T05:43:08.855Z,7.8
2019-03-23T05:44:10.409Z,7.8
2019-03-23T05:45:11.962Z,7.8
2019-03-23T05:46:13.200Z,7.8
2019-03-23T05:47:14.598Z,7.8
2019-03-23T05:48:16.178Z,7.8
2019-03-23T05:49:17.727Z,7.8
2019-03-23T05:50:19.112Z,7.8
2019-03-23T05:51:20.640Z,7.8
2019-03-23T05:52:22.202Z,7.8
2019-03-23T05:53:23.780Z,7.8
2019-03-23T05:54:25.160Z,7.8
2019-03-23T05:55:26.565Z,7.8
2019-03-23T05:56:27.783Z,7.8
2019-03-23T05:57:29.307Z,7.8
2019-03-23T05:58:30.841Z,7.7
2019-03-23T05:59:32.218Z,7.7
2019-03-23T06:00:33.604Z,7.7
2019-03-23T06:01:34.865Z,7.7
2019-03-23T06:02:36.415Z,7.7
2019-03-23T06:03:37.798Z,7.7
2019-03-23T06:04:39.202Z,7.7
2019-03-23T06:05:40.750Z,7.8
2019-03-23T06:06:42.300Z,7.8
2019-03-23T06:07:43.831Z,7.8
2019-03-23T06:08:56.820Z,7.8
2019-03-23T06:09:58.381Z,7.8
2019-03-23T06:10:59.912Z,7.8
2019-03-23T06:12:01.465Z,7.7
2019-03-23T06:13:02.852Z,7.7
2019-03-23T06:14:04.071Z,7.8
2019-03-23T06:15:05.446Z,7.8
2019-03-23T06:16:06.846Z,7.8
2019-03-23T06:17:08.222Z,7.7
2019-03-23T06:18:09.626Z,7.8
2019-03-23T06:19:10.991Z,7.8
2019-03-23T06:20:12.573Z,7.8
2019-03-23T06:21:13.859Z,7.8
2019-03-23T06:22:15.274Z,7.8
2019-03-23T06:23:16.808Z,7.7
2019-03-23T06:24:18.340Z,7.6
2019-03-23T06:25:19.755Z,7.5
2019-03-23T06:26:20.969Z,7.4
2019-03-23T06:27:22.493Z,7.3
2019-03-23T06:28:24.074Z,7.2
2019-03-23T06:29:25.602Z,7.1
2019-03-23T06:30:26.996Z,7.1
2019-03-23T06:31:28.540Z,7.1
2019-03-23T06:32:30.096Z,7.1
2019-03-23T06:33:31.512Z,7.1
2019-03-23T06:34:32.908Z,7.1
2019-03-23T06:35:34.427Z,7.1
2019-03-23T06:36:36.188Z,7.2
2019-03-23T06:37:38.136Z,7.1
2019-03-23T06:38:39.713Z,7.1
2019-03-23T06:39:41.874Z,7.1
2019-03-23T06:40:43.398Z,7.1
2019-03-23T06:41:44.794Z,7.1
2019-03-23T06:42:46.195Z,7.2
2019-03-23T06:43:48.842Z,7.2
2019-03-23T06:44:50.398Z,7.2
2019-03-23T06:45:52.378Z,7.2
2019-03-23T06:46:54.172Z,7.2
2019-03-23T06:47:55.814Z,7.2
2019-03-23T06:48:57.835Z,7.2
2019-03-23T06:49:59.379Z,7.2
2019-03-23T06:51:03.490Z,7.2
2019-03-23T06:52:05.076Z,7.2
2019-03-23T06:53:06.479Z,7.3
2019-03-23T06:54:08.229Z,7.3
2019-03-23T06:55:09.622Z,7.3
2019-03-23T06:56:11.168Z,7.3
2019-03-23T06:57:12.828Z,7.3
2019-03-23T06:58:14.415Z,7.3
2019-03-23T06:59:15.672Z,7.3
2019-03-23T07:00:17.268Z,7.3
2019-03-23T07:01:19.147Z,7.2
2019-03-23T07:02:21.432Z,7.2
2019-03-23T07:03:23.739Z,7.2
2019-03-23T07:04:28.553Z,7.2
2019-03-23T07:05:30.504Z,7.2
2019-03-23T07:06:32.063Z,7.2
2019-03-23T07:07:34.715Z,7.2
2019-03-23T07:08:36.514Z,7.2
2019-03-23T07:09:38.340Z,7.2
2019-03-23T07:10:39.982Z,7.2
2019-03-23T07:11:41.523Z,7.2
2019-03-23T07:12:42.780Z,7.2
2019-03-23T07:13:44.682Z,7.2
2019-03-23T07:14:47.217Z,7.2
2019-03-23T07:15:49.200Z,7.2
2019-03-23T07:16:50.774Z,7.2
2019-03-23T07:17:52.301Z,7.2
2019-03-23T07:18:54.249Z,7.2
2019-03-23T07:19:55.896Z,7.2
2019-03-23T07:20:57.627Z,7.2
2019-03-23T07:21:59.810Z,7.2
2019-03-23T07:23:02.270Z,7.2
2019-03-23T07:24:03.593Z,7.2
2019-03-23T07:25:05.371Z,7.3
2019-03-23T07:26:07.134Z,7.3
2019-03-23T07:27:08.192Z,7.3
2019-03-23T07:28:10.304Z,7.3
2019-03-23T07:29:12.041Z,7.4
2019-03-23T07:30:13.601Z,7.4
2019-03-23T07:31:15.274Z,7.4
2019-03-23T07:32:16.710Z,7.4
2019-03-23T07:33:18.114Z,7.4
2019-03-23T07:34:19.731Z,7.5
2019-03-23T07:35:21.199Z,7.5
2019-03-23T07:36:22.762Z,7.5
2019-03-23T07:37:24.829Z,7.6
2019-03-23T07:38:26.439Z,7.6
2019-03-23T07:39:32.248Z,7.6
2019-03-23T07:40:34.013Z,7.7
2019-03-23T07:41:35.638Z,7.6
2019-03-23T07:42:37.110Z,7.6
2019-03-23T07:43:38.973Z,7.6
2019-03-23T07:44:40.694Z,7.6
2019-03-23T07:45:42.175Z,7.5
2019-03-23T07:46:43.916Z,7.4
2019-03-23T07:47:45.707Z,7.3
2019-03-23T07:48:47.287Z,7.2
2019-03-23T07:49:48.876Z,7.2
2019-03-23T07:50:50.997Z,7.2
2019-03-23T07:51:52.425Z,7.2
2019-03-23T07:52:53.956Z,7.2
2019-03-23T07:53:55.947Z,7.1
2019-03-23T07:54:57.718Z,7.1
2019-03-23T07:55:59.569Z,7.1
2019-03-23T07:57:01.714Z,7.1
2019-03-23T07:58:03.266Z,7.1
2019-03-23T07:59:04.808Z,7.1
2019-03-23T08:00:06.336Z,7.1
2019-03-23T08:01:07.897Z,7.1
2019-03-23T08:02:09.310Z,7.1
2019-03-23T08:03:11.308Z,7.1
2019-03-23T08:04:13.400Z,7.1
2019-03-23T08:05:14.958Z,7.1
2019-03-23T08:06:16.666Z,7.1
2019-03-23T08:07:18.413Z,7.1
2019-03-23T08:08:19.808Z,7.1
2019-03-23T08:09:24.852Z,7.1
2019-03-23T08:10:26.848Z,7.1
2019-03-23T08:11:28.814Z,7.1
2019-03-23T08:12:30.198Z,7.1
2019-03-23T08:13:32.374Z,7.2
2019-03-23T08:14:37.254Z,7.2
2019-03-23T08:15:38.810Z,7.2
2019-03-23T08:16:40.366Z,7.2
2019-03-23T08:17:42.226Z,7.2
2019-03-23T08:18:44.068Z,7.2
2019-03-23T08:19:45.738Z,7.3
2019-03-23T08:20:47.422Z,7.4
2019-03-23T08:21:49.682Z,7.4
2019-03-23T08:22:51.519Z,7.5
2019-03-23T08:23:53.090Z,7.7
2019-03-23T08:24:54.996Z,7.8
2019-03-23T08:25:57.006Z,7.9
2019-03-23T08:26:58.546Z,7.9
2019-03-23T08:27:59.948Z,7.9
2019-03-23T08:29:03.547Z,7.6
2019-03-23T08:30:05.126Z,7.7
2019-03-23T08:31:06.787Z,7.8
2019-03-23T08:32:08.336Z,7.9
2019-03-23T08:33:09.905Z,7.9
2019-03-23T08:34:11.597Z,7.9
2019-03-23T08:35:13.054Z,7.9
2019-03-23T08:36:15.113Z,7.9
2019-03-23T08:37:16.901Z,7.9
2019-03-23T08:38:18.645Z,7.9
2019-03-23T08:39:20.063Z,7.9
2019-03-23T08:40:21.847Z,7.9
2019-03-23T08:41:24.032Z,7.9
2019-03-23T08:42:25.584Z,7.9
2019-03-23T08:43:27.650Z,7.9
2019-03-23T08:44:31.527Z,7.9
2019-03-23T08:45:33.641Z,7.9
2019-03-23T08:46:35.179Z,7.9
2019-03-23T08:47:37.111Z,7.9
2019-03-23T08:48:38.906Z,7.9
2019-03-23T08:49:40.491Z,7.9
2019-03-23T08:50:42.107Z,7.9
2019-03-23T08:51:44.407Z,7.9
2019-03-23T08:52:45.948Z,7.9
2019-03-23T08:53:47.819Z,7.9
2019-03-23T08:54:49.348Z,7.9
2019-03-23T08:55:51.448Z,7.9
2019-03-23T08:56:53.062Z,7.9
2019-03-23T08:57:54.620Z,7.9
2019-03-23T08:58:56.902Z,7.9
2019-03-23T08:59:58.788Z,7.9
2019-03-23T09:01:00.543Z,7.9
2019-03-23T09:02:02.328Z,7.9
2019-03-23T09:03:05.961Z,7.9
2019-03-23T09:04:08.108Z,7.9
2019-03-23T09:05:10.416Z,7.9
2019-03-23T09:06:12.310Z,7.9
2019-03-23T09:07:14.470Z,7.9
2019-03-23T09:08:19.744Z,7.9
2019-03-23T09:09:21.314Z,7.9
2019-03-23T09:10:23.112Z,7.9
2019-03-23T09:11:24.808Z,7.3
2019-03-23T09:12:26.978Z,7.4
2019-03-23T09:13:41.690Z,7.5
2019-03-23T09:14:44.117Z,7.6
2019-03-23T09:15:46.420Z,7.7
2019-03-23T09:16:48.109Z,7.6
2019-03-23T09:17:49.918Z,7.7
2019-03-23T09:18:51.878Z,7.7
2019-03-23T09:19:54.375Z,7.8
2019-03-23T09:20:56.888Z,7.8
2019-03-23T09:21:58.418Z,7.7
2019-03-23T09:23:00.960Z,7.7
2019-03-23T09:24:02.619Z,7.6
2019-03-23T09:25:04.419Z,7.5
2019-03-23T09:26:06.630Z,7.4
2019-03-23T09:27:08.728Z,7.3
2019-03-23T09:28:11.011Z,7.2
2019-03-23T09:29:13.082Z,7.2
2019-03-23T09:30:14.947Z,7.2
2019-03-23T09:31:17.057Z,7.2
2019-03-23T09:32:18.755Z,7.2
2019-03-23T09:33:20.194Z,7.2
2019-03-23T09:34:22.398Z,7.2
2019-03-23T09:35:24.418Z,7.1
2019-03-23T09:36:26.554Z,7.1
2019-03-23T09:37:28.728Z,7.1
2019-03-23T09:38:31.015Z,7.1
2019-03-23T09:39:33.928Z,7.1
2019-03-23T09:40:36.068Z,7.1
2019-03-23T09:41:37.952Z,7.1
2019-03-23T09:42:40.304Z,7.1
2019-03-23T09:43:42.150Z,7.1
2019-03-23T09:44:44.586Z,7.1
2019-03-23T09:45:46.900Z,7.1
2019-03-23T09:46:49.444Z,7.1
2019-03-23T09:47:51.428Z,7.1
2019-03-23T09:48:52.515Z,7.2
2019-03-23T09:49:54.248Z,7.1
2019-03-23T09:50:55.808Z,7.1
2019-03-23T09:51:57.421Z,7.2
2019-03-23T09:52:58.970Z,7.2
2019-03-23T09:54:00.506Z,7.1
2019-03-23T09:55:02.095Z,7.2
2019-03-23T09:56:03.700Z,7.2
2019-03-23T09:57:05.099Z,7.2
2019-03-23T09:58:06.673Z,7.2
2019-03-23T09:59:07.924Z,7.2
2019-03-23T10:00:09.493Z,7.2
2019-03-23T10:01:10.878Z,7.2
2019-03-23T10:02:12.447Z,7.2
2019-03-23T10:03:13.894Z,7.2
2019-03-23T10:04:15.466Z,7.2
2019-03-23T10:05:16.893Z,7.2
2019-03-23T10:06:18.470Z,7.2
2019-03-23T10:07:20.138Z,7.2
2019-03-23T10:08:21.628Z,7.3
2019-03-23T10:09:23.238Z,7.3
2019-03-23T10:10:24.794Z,7.4
2019-03-23T10:11:26.213Z,7.4
2019-03-23T10:12:27.615Z,7.4
2019-03-23T10:13:29.182Z,7.5
2019-03-23T10:14:30.766Z,7.5
2019-03-23T10:15:32.402Z,7.6
2019-03-23T10:16:33.952Z,7.6
2019-03-23T10:17:35.368Z,7.7
2019-03-23T10:18:36.941Z,7.8
2019-03-23T10:19:38.344Z,7.9
2019-03-23T10:20:39.416Z,7.9
2019-03-23T10:21:40.819Z,7.9
2019-03-23T10:22:42.403Z,7.9
2019-03-23T10:23:43.911Z,7.5
2019-03-23T10:24:45.489Z,7.6
2019-03-23T10:25:47.034Z,7.7
2019-03-23T10:26:48.583Z,7.8
2019-03-23T10:27:50.163Z,7.9
2019-03-23T10:28:51.708Z,7.9
2019-03-23T10:29:53.103Z,7.8
2019-03-23T10:30:54.658Z,7.9
2019-03-23T10:31:57.196Z,7.9
2019-03-23T10:32:58.782Z,7.8
2019-03-23T10:34:00.195Z,7.8
2019-03-23T10:35:01.894Z,7.9
2019-03-23T10:36:03.462Z,7.9
2019-03-23T10:37:05.046Z,7.9
2019-03-23T10:38:06.842Z,7.9
2019-03-23T10:39:08.598Z,7.9
2019-03-23T10:40:10.153Z,7.9
2019-03-23T10:41:11.719Z,7.9
2019-03-23T10:42:13.130Z,7.9
2019-03-23T10:43:14.694Z,7.9
2019-03-23T10:44:16.112Z,7.9
2019-03-23T10:45:17.336Z,7.9
2019-03-23T10:46:18.711Z,7.9
2019-03-23T10:47:20.605Z,7.9
2019-03-23T10:48:22.168Z,7.9
2019-03-23T10:49:23.700Z,7.9
2019-03-23T10:50:24.775Z,7.9
2019-03-23T10:51:26.316Z,7.9
2019-03-23T10:52:27.868Z,7.9
2019-03-23T10:53:29.409Z,7.9
2019-03-23T10:54:30.646Z,7.9
2019-03-23T10:55:32.077Z,7.9
2019-03-23T10:56:33.702Z,7.9
2019-03-23T10:57:35.277Z,7.9
2019-03-23T10:58:36.381Z,7.9
2019-03-23T10:59:37.957Z,7.9
2019-03-23T11:00:39.509Z,7.9
2019-03-23T11:01:41.078Z,7.9
2019-03-23T11:02:42.531Z,7.9
2019-03-23T11:03:43.944Z,7.2
2019-03-23T11:04:45.531Z,7.3
2019-03-23T11:05:46.942Z,7.5
2019-03-23T11:06:48.487Z,7.6
2019-03-23T11:07:49.913Z,7.8
2019-03-23T11:08:51.469Z,7.8
2019-03-23T11:09:53.175Z,7.9
2019-03-23T11:10:54.592Z,7.2
2019-03-23T11:11:56.205Z,7.2
2019-03-23T11:12:57.629Z,7.2
2019-03-23T11:13:59.042Z,7.2
2019-03-23T11:15:00.482Z,7.2
2019-03-23T11:16:02.038Z,7.2
2019-03-23T11:17:03.452Z,7.2
2019-03-23T11:18:05.033Z,7.2
2019-03-23T11:19:14.866Z,7.1
2019-03-23T11:20:16.282Z,7.2
2019-03-23T11:21:17.679Z,7.1
2019-03-23T11:22:19.286Z,7.1
2019-03-23T11:23:20.671Z,7.1
2019-03-23T11:24:22.090Z,7.1
2019-03-23T11:25:23.686Z,7.1
2019-03-23T11:26:25.252Z,7.1
2019-03-23T11:27:26.818Z,7.1
2019-03-23T11:28:28.238Z,7.1
2019-03-23T11:29:29.666Z,7.1
2019-03-23T11:30:31.251Z,7.2
2019-03-23T11:31:32.863Z,7.2
2019-03-23T11:32:34.508Z,7.1
2019-03-23T11:33:36.098Z,7.2
2019-03-23T11:34:37.683Z,7.2
2019-03-23T11:35:39.232Z,7.2
2019-03-23T11:36:40.813Z,7.2
2019-03-23T11:37:43.995Z,7.2
2019-03-23T11:38:45.654Z,7.2
2019-03-23T11:39:47.226Z,7.2
2019-03-23T11:40:56.694Z,7.2
2019-03-23T11:41:58.237Z,7.2
2019-03-23T11:42:59.487Z,7.2
2019-03-23T11:44:00.899Z,7.2
2019-03-23T11:45:02.507Z,7.2
2019-03-23T11:46:03.904Z,7.2
2019-03-23T11:47:05.365Z,7.2
2019-03-23T11:48:06.933Z,7.2
2019-03-23T11:49:08.184Z,7.2
2019-03-23T11:50:09.750Z,7.3
2019-03-23T11:51:11.313Z,7.3
2019-03-23T11:52:12.736Z,7.4
2019-03-23T11:53:14.299Z,7.4
2019-03-23T11:54:15.687Z,7.5
2019-03-23T11:55:17.120Z,7.5
2019-03-23T11:56:18.521Z,7.6
2019-03-23T11:57:19.968Z,7.6
2019-03-23T11:58:21.527Z,7.7
2019-03-23T11:59:22.928Z,7.7
2019-03-23T12:00:24.574Z,7.7
2019-03-23T12:01:25.999Z,7.8
2019-03-23T12:02:27.567Z,7.8
2019-03-23T12:03:29.139Z,7.8
2019-03-23T12:04:30.713Z,7.9
2019-03-23T12:05:32.295Z,7.9
2019-03-23T12:06:33.870Z,7.9
2019-03-23T12:07:35.492Z,7.9
2019-03-23T12:08:36.906Z,7.9
2019-03-23T12:09:38.501Z,7.9
2019-03-23T12:10:40.063Z,7.9
2019-03-23T12:11:41.630Z,7.9
2019-03-23T12:12:43.177Z,7.9
2019-03-23T12:13:44.738Z,7.9
2019-03-23T12:14:46.129Z,7.9
2019-03-23T12:15:47.689Z,7.9
2019-03-23T12:16:49.310Z,7.9
2019-03-23T12:17:50.893Z,7.9
2019-03-23T12:18:52.488Z,7.9
2019-03-23T12:19:54.081Z,7.9
2019-03-23T12:20:55.631Z,7.9
2019-03-23T12:21:57.042Z,7.7
2019-03-23T12:22:58.440Z,7.8
2019-03-23T12:24:00.000Z,7.9
2019-03-23T12:25:01.731Z,7.9
2019-03-23T12:26:03.013Z,7.9
2019-03-23T12:27:04.436Z,7.9
2019-03-23T12:28:06.006Z,7.9
2019-03-23T12:29:07.588Z,7.9
2019-03-23T12:30:09.020Z,7.9
2019-03-23T12:31:10.599Z,7.9
2019-03-23T12:32:11.994Z,7.9
2019-03-23T12:33:13.569Z,7.4
2019-03-23T12:34:15.115Z,7.6
2019-03-23T12:35:16.685Z,7.7
2019-03-23T12:36:18.592Z,7.8
2019-03-23T12:37:20.037Z,7.9
2019-03-23T12:38:21.670Z,7.9
2019-03-23T12:39:23.090Z,7.9
2019-03-23T12:40:24.693Z,7.9
2019-03-23T12:41:26.264Z,7.2
2019-03-23T12:42:27.839Z,7.3
2019-03-23T12:43:29.411Z,7.4
2019-03-23T12:44:30.814Z,7.5
2019-03-23T12:45:32.409Z,7.6
2019-03-23T12:46:33.835Z,7.6
2019-03-23T12:47:35.409Z,7.6
2019-03-23T12:48:36.961Z,7.6
2019-03-23T12:49:38.358Z,7.6
2019-03-23T12:50:39.914Z,7.5
2019-03-23T12:51:41.130Z,7.4
2019-03-23T12:52:42.514Z,7.3
2019-03-23T12:53:44.083Z,7.2
2019-03-23T12:54:45.651Z,7.2
2019-03-23T12:55:47.207Z,7.2
2019-03-23T12:56:48.793Z,7.2
2019-03-23T12:57:50.396Z,7.1
2019-03-23T12:58:51.782Z,7.1
2019-03-23T12:59:53.165Z,7.2
2019-03-23T13:00:54.706Z,7.2
2019-03-23T13:01:56.510Z,7.1
2019-03-23T13:02:58.052Z,7.1
2019-03-23T13:03:59.447Z,7.2
2019-03-23T13:05:01.091Z,7.1
2019-03-23T13:06:02.498Z,7.1
2019-03-23T13:07:04.137Z,7.1
2019-03-23T13:08:05.398Z,7.1
2019-03-23T13:09:06.951Z,7.2
2019-03-23T13:10:08.391Z,7.1
2019-03-23T13:11:09.821Z,7.2
2019-03-23T13:12:11.067Z,7.2
2019-03-23T13:13:12.631Z,7.2
2019-03-23T13:14:14.206Z,7.2
2019-03-23T13:15:15.800Z,7.2
2019-03-23T13:16:17.406Z,7.2
2019-03-23T13:17:18.978Z,7.2
2019-03-23T13:18:28.830Z,7.2
2019-03-23T13:19:30.223Z,7.2
2019-03-23T13:20:32.648Z,7.2
2019-03-23T13:21:34.224Z,7.2
2019-03-23T13:22:35.611Z,7.2
2019-03-23T13:23:36.869Z,7.2
2019-03-23T13:24:38.429Z,7.2
2019-03-23T13:25:39.805Z,7.2
2019-03-23T13:26:41.037Z,7.2
2019-03-23T13:27:43.801Z,7.2
2019-03-23T13:28:45.344Z,7.3
2019-03-23T13:29:46.716Z,7.3
2019-03-23T13:30:47.942Z,7.4
2019-03-23T13:31:49.478Z,7.4
2019-03-23T13:32:51.089Z,7.5
2019-03-23T13:33:52.678Z,7.6
2019-03-23T13:34:54.214Z,7.7
2019-03-23T13:35:55.757Z,7.8
2019-03-23T13:36:57.000Z,7.9
2019-03-23T13:37:58.559Z,7.9
2019-03-23T13:38:59.964Z,7.9
2019-03-23T13:40:01.572Z,7.9
2019-03-23T13:41:03.120Z,7.9
2019-03-23T13:42:04.532Z,7.4
2019-03-23T13:43:06.106Z,7.5
2019-03-23T13:44:07.478Z,7.7
2019-03-23T13:45:09.009Z,7.8
2019-03-23T13:46:10.566Z,7.9
2019-03-23T13:47:12.270Z,7.9
2019-03-23T13:48:13.703Z,7.9
2019-03-23T13:49:15.233Z,7.9
2019-03-23T13:50:16.619Z,7.9
2019-03-23T13:51:18.172Z,7.9
2019-03-23T13:52:19.725Z,7.9
2019-03-23T13:53:21.520Z,7.9
2019-03-23T13:54:23.090Z,7.9
2019-03-23T13:55:24.643Z,7.9
2019-03-23T13:56:26.191Z,7.9
2019-03-23T13:57:27.786Z,7.9
2019-03-23T13:58:29.193Z,7.9
2019-03-23T13:59:30.583Z,7.9
2019-03-23T14:00:31.966Z,7.9
2019-03-23T14:01:33.515Z,7.9
2019-03-23T14:02:35.090Z,7.9
2019-03-23T14:03:36.538Z,7.9
2019-03-23T14:04:38.097Z,7.9
2019-03-23T14:05:39.491Z,7.9
2019-03-23T14:06:40.885Z,7.9
2019-03-23T14:07:42.306Z,7.9
2019-03-23T14:08:43.710Z,7.9
2019-03-23T14:09:45.276Z,7.9